Time;durP1;ratioP1;P1;durP2;ratioP2;P2;SDS_P1;SDS_P2;PMS_P1;PMS_P2;Temp;Humidity;BMP_temperature;BMP_pressure;BME280_temperature;BME280_humidity;BME280_pressure;Samples;Min_cycle;Max_cycle;Signal;HPM_P1;HPM_P2
2023/03/23 00:01:31;;;;;;;8.73;4.18;;;12.90;83.50;;;;;;5026276;28;20049;-74
2023/03/23 00:03:58;;;;;;;7.05;4.25;;;12.90;83.60;;;;;;5026951;28;20095;-73
2023/03/23 00:06:26;;;;;;;8.43;4.28;;;12.90;83.60;;;;;;5023575;28;20050;-74
2023/03/23 00:08:59;;;;;;;8.85;4.45;;;12.90;83.70;;;;;;5023612;28;20088;-74
2023/03/23 00:11:28;;;;;;;8.13;4.43;;;12.90;83.80;;;;;;5026062;28;20056;-74
2023/03/23 00:13:57;;;;;;;8.43;4.38;;;12.90;84.00;;;;;;5019350;28;20022;-74
2023/03/23 00:16:30;;;;;;;7.13;4.22;;;12.80;84.10;;;;;;5024635;28;20038;-73
2023/03/23 00:19:01;;;;;;;8.73;4.20;;;12.80;84.20;;;;;;5022639;28;20033;-74
2023/03/23 00:21:34;;;;;;;10.55;4.72;;;12.70;84.20;;;;;;5024079;28;20568;-73
2023/03/23 00:24:11;;;;;;;7.05;3.88;;;12.70;84.20;;;;;;5025855;28;20511;-73
2023/03/23 00:26:43;;;;;;;7.13;3.88;;;12.70;84.20;;;;;;5017405;28;20035;-72
2023/03/23 00:29:29;;;;;;;6.10;3.75;;;12.70;84.00;;;;;;5023501;28;20035;-73
2023/03/23 00:31:56;;;;;;;7.57;3.92;;;12.60;84.00;;;;;;5022839;28;20631;-73
2023/03/23 00:34:24;;;;;;;6.50;3.72;;;12.70;83.80;;;;;;5024863;28;20026;-72
2023/03/23 00:36:53;;;;;;;6.50;3.58;;;12.70;83.70;;;;;;5021959;28;20090;-76
2023/03/23 00:39:19;;;;;;;8.10;3.83;;;12.70;83.70;;;;;;5018509;28;20032;-75
2023/03/23 00:41:46;;;;;;;7.38;3.50;;;12.70;83.60;;;;;;5023226;28;20029;-75
2023/03/23 00:44:16;;;;;;;7.25;3.53;;;12.70;83.50;;;;;;5022688;28;20029;-74
2023/03/23 00:46:48;;;;;;;7.38;3.60;;;12.80;83.40;;;;;;5022183;28;20057;-74
2023/03/23 00:49:17;;;;;;;7.53;3.28;;;12.70;83.50;;;;;;5017324;28;20554;-73
2023/03/23 00:51:43;;;;;;;7.82;3.60;;;12.70;83.60;;;;;;5017684;28;20037;-74
2023/03/23 00:54:10;;;;;;;5.43;3.10;;;12.70;83.70;;;;;;5021139;28;20014;-75
2023/03/23 00:56:36;;;;;;;6.32;3.33;;;12.70;83.80;;;;;;5008152;28;20137;-74
2023/03/23 00:59:02;;;;;;;7.65;3.40;;;12.70;83.60;;;;;;5025309;28;20037;-75
2023/03/23 01:01:29;;;;;;;6.40;3.10;;;12.70;83.70;;;;;;5024842;28;20053;-75
2023/03/23 01:04:00;;;;;;;6.10;3.20;;;12.80;83.80;;;;;;5024153;28;20056;-75
2023/03/23 01:06:27;;;;;;;6.38;2.70;;;12.80;83.70;;;;;;5025255;28;20482;-74
2023/03/23 01:08:53;;;;;;;5.50;2.92;;;12.80;83.70;;;;;;5021532;28;20060;-75
2023/03/23 01:11:20;;;;;;;5.28;2.88;;;12.80;83.90;;;;;;5022425;28;20037;-74
2023/03/23 01:13:46;;;;;;;7.47;3.60;;;12.80;83.80;;;;;;5016765;28;20029;-74
2023/03/23 01:16:12;;;;;;;6.63;3.40;;;12.80;83.90;;;;;;5023521;28;20041;-74
2023/03/23 01:18:38;;;;;;;5.28;3.15;;;12.80;83.80;;;;;;5023273;28;20431;-75
2023/03/23 01:21:10;;;;;;;9.02;3.63;;;12.80;83.90;;;;;;5021885;28;20037;-74
2023/03/23 01:23:37;;;;;;;6.25;3.17;;;12.70;83.80;;;;;;5037506;28;20033;-74
2023/03/23 01:26:07;;;;;;;7.25;3.58;;;12.70;83.80;;;;;;5022930;28;20038;-74
2023/03/23 01:28:35;;;;;;;7.50;3.10;;;12.70;83.90;;;;;;5023878;28;20095;-73
2023/03/23 01:31:09;;;;;;;7.70;3.17;;;12.60;83.90;;;;;;5020849;28;20321;-73
2023/03/23 01:33:35;;;;;;;6.32;3.13;;;12.60;83.90;;;;;;5020680;28;20064;-74
2023/03/23 01:36:10;;;;;;;5.63;2.85;;;12.70;83.70;;;;;;5006138;28;20783;-74
2023/03/23 01:38:36;;;;;;;6.18;2.67;;;12.70;83.70;;;;;;5024765;28;20518;-74
2023/03/23 01:41:03;;;;;;;5.18;2.60;;;12.70;83.60;;;;;;5022575;28;20037;-77
2023/03/23 01:43:29;;;;;;;6.75;2.85;;;12.70;83.50;;;;;;5025813;28;20025;-74
2023/03/23 01:45:55;;;;;;;5.85;2.60;;;12.70;83.10;;;;;;5028739;28;20049;-74
2023/03/23 01:48:25;;;;;;;6.57;2.75;;;12.80;83.10;;;;;;5026871;28;20112;-73
2023/03/23 01:51:06;;;;;;;5.97;2.80;;;12.70;83.10;;;;;;5019934;28;20033;-74
2023/03/23 01:53:45;;;;;;;5.05;2.70;;;12.80;83.00;;;;;;5026752;28;20553;-74
2023/03/23 01:56:14;;;;;;;5.05;2.25;;;12.80;82.90;;;;;;5025989;28;20485;-75
2023/03/23 01:58:41;;;;;;;5.95;2.75;;;12.80;83.00;;;;;;5027618;28;20060;-74
2023/03/23 02:01:11;;;;;;;6.68;2.50;;;12.80;83.10;;;;;;5019784;28;20410;-73
2023/03/23 02:03:39;;;;;;;5.57;2.58;;;12.80;83.00;;;;;;5007525;28;20032;-74
2023/03/23 02:06:05;;;;;;;6.85;2.53;;;12.80;83.10;;;;;;5025054;28;20079;-74
2023/03/23 02:08:32;;;;;;;7.53;2.63;;;12.70;83.00;;;;;;5026936;28;20100;-73
2023/03/23 02:10:59;;;;;;;5.05;2.30;;;12.80;82.60;;;;;;5027076;28;20049;-73
2023/03/23 02:13:26;;;;;;;8.02;2.60;;;12.80;82.50;;;;;;5029120;28;20038;-74
2023/03/23 02:16:08;;;;;;;10.20;2.83;;;12.80;82.40;;;;;;5022428;28;20905;-74
2023/03/23 02:18:41;;;;;;;7.90;2.55;;;12.80;82.30;;;;;;5026638;28;20029;-73
2023/03/23 02:21:19;;;;;;;7.10;2.33;;;12.80;82.30;;;;;;5027133;28;20039;-75
2023/03/23 02:24:22;;;;;;;6.72;2.70;;;12.80;82.30;;;;;;5025086;28;20025;-74
2023/03/23 02:26:55;;;;;;;7.82;2.33;;;12.70;82.10;;;;;;5014518;28;20034;-74
2023/03/23 02:29:27;;;;;;;6.72;2.22;;;12.80;82.10;;;;;;5028006;28;20017;-74
2023/03/23 02:32:05;;;;;;;8.90;2.60;;;12.80;82.10;;;;;;5006323;28;20525;-74
2023/03/23 02:34:58;;;;;;;10.60;3.17;;;12.70;82.00;;;;;;5030624;28;20021;-74
2023/03/23 02:37:36;;;;;;;6.18;2.17;;;12.80;81.90;;;;;;5021930;28;20519;-74
2023/03/23 02:40:11;;;;;;;8.18;2.45;;;12.80;82.00;;;;;;5031833;28;20327;-74
2023/03/23 02:42:39;;;;;;;5.78;2.10;;;12.80;81.80;;;;;;5024286;28;20605;-73
2023/03/23 02:45:08;;;;;;;7.18;2.58;;;12.80;81.70;;;;;;5025130;28;20222;-73
2023/03/23 02:47:36;;;;;;;8.32;2.55;;;12.80;81.80;;;;;;5033192;28;20407;-73
2023/03/23 02:50:05;;;;;;;8.50;1.98;;;12.80;81.70;;;;;;5022127;28;20638;-74
2023/03/23 02:52:33;;;;;;;8.90;2.60;;;12.80;81.80;;;;;;5021558;28;20052;-74
2023/03/23 02:55:01;;;;;;;6.80;2.47;;;12.80;81.80;;;;;;5026345;28;20123;-73
2023/03/23 02:57:27;;;;;;;6.28;2.40;;;12.80;81.70;;;;;;5006645;28;20495;-72
2023/03/23 02:59:54;;;;;;;6.53;2.72;;;12.80;81.70;;;;;;5031030;28;20061;-74
2023/03/23 03:02:27;;;;;;;7.38;2.35;;;12.80;81.50;;;;;;5025977;28;20114;-73
2023/03/23 03:05:03;;;;;;;5.65;2.60;;;12.80;81.70;;;;;;5025456;28;20029;-73
2023/03/23 03:07:41;;;;;;;7.57;2.38;;;12.80;81.90;;;;;;5024496;28;20748;-73
2023/03/23 03:10:31;;;;;;;7.03;2.53;;;12.80;82.00;;;;;;5023195;28;20139;-73
2023/03/23 03:13:20;;;;;;;6.93;2.45;;;12.80;82.20;;;;;;5024534;28;20030;-76
2023/03/23 03:16:14;;;;;;;10.15;2.20;;;12.80;82.30;;;;;;5023875;28;20044;-74
2023/03/23 03:18:55;;;;;;;9.52;2.63;;;12.80;82.40;;;;;;5022230;28;20041;-74
2023/03/23 03:21:25;;;;;;;6.22;2.10;;;12.80;82.30;;;;;;5024079;28;20029;-75
2023/03/23 03:23:58;;;;;;;8.77;2.53;;;12.80;82.30;;;;;;5020582;28;20363;-73
2023/03/23 03:26:29;;;;;;;6.80;2.45;;;12.80;82.40;;;;;;5024137;28;20029;-73
2023/03/23 03:28:55;;;;;;;5.18;1.80;;;12.70;82.50;;;;;;5022985;28;20111;-76
2023/03/23 03:31:33;;;;;;;8.30;2.67;;;12.70;82.60;;;;;;5022005;28;20049;-75
2023/03/23 03:34:01;;;;;;;7.25;2.58;;;12.70;82.70;;;;;;5023808;28;20047;-74
2023/03/23 03:36:34;;;;;;;7.05;2.65;;;12.70;82.70;;;;;;5028072;28;20394;-75
2023/03/23 03:39:04;;;;;;;6.78;2.95;;;12.70;82.70;;;;;;5020707;28;20097;-75
2023/03/23 03:41:30;;;;;;;7.68;2.67;;;12.70;82.50;;;;;;5021741;28;20095;-74
2023/03/23 03:43:56;;;;;;;5.30;2.15;;;12.70;82.40;;;;;;5026568;28;20021;-74
2023/03/23 03:46:22;;;;;;;6.85;2.60;;;12.70;82.40;;;;;;5024310;28;20056;-75
2023/03/23 03:48:47;;;;;;;5.78;2.13;;;12.70;82.20;;;;;;5024030;28;20478;-74
2023/03/23 03:51:13;;;;;;;8.15;2.30;;;12.70;82.10;;;;;;5023949;28;21230;-75
2023/03/23 03:53:39;;;;;;;6.55;2.22;;;12.70;82.20;;;;;;5026044;28;20039;-75
2023/03/23 03:56:05;;;;;;;6.75;2.25;;;12.70;82.00;;;;;;5035335;28;20047;-74
2023/03/23 03:58:31;;;;;;;9.93;2.95;;;12.70;82.00;;;;;;5022250;28;20146;-74
2023/03/23 04:00:58;;;;;;;7.13;2.78;;;12.70;82.00;;;;;;5023282;28;20175;-74
2023/03/23 04:03:26;;;;;;;6.55;2.38;;;12.70;82.00;;;;;;5027343;28;20045;-74
2023/03/23 04:05:54;;;;;;;8.35;2.53;;;12.70;81.90;;;;;;5021645;28;20534;-75
2023/03/23 04:08:23;;;;;;;6.80;2.83;;;12.70;81.90;;;;;;5022002;28;20060;-75
2023/03/23 04:10:50;;;;;;;9.70;2.63;;;12.70;81.60;;;;;;5037411;28;20030;-74
2023/03/23 04:13:16;;;;;;;8.57;2.63;;;12.70;81.60;;;;;;5024355;28;20030;-74
2023/03/23 04:15:43;;;;;;;6.85;2.10;;;12.70;81.60;;;;;;5018085;28;20039;-75
2023/03/23 04:18:08;;;;;;;8.10;2.88;;;12.70;81.80;;;;;;5018548;28;20087;-74
2023/03/23 04:20:34;;;;;;;12.00;3.15;;;12.60;81.70;;;;;;5021802;28;20033;-74
2023/03/23 04:23:01;;;;;;;11.30;2.70;;;12.60;81.90;;;;;;5031707;28;20098;-75
2023/03/23 04:25:27;;;;;;;7.50;2.40;;;12.60;82.00;;;;;;5031109;28;20025;-75
2023/03/23 04:27:53;;;;;;;9.45;3.00;;;12.60;81.80;;;;;;5021893;28;20033;-74
2023/03/23 04:30:24;;;;;;;10.30;2.45;;;12.60;82.10;;;;;;5020234;28;20100;-74
2023/03/23 04:32:51;;;;;;;9.68;3.08;;;12.60;82.70;;;;;;5023550;28;20045;-74
2023/03/23 04:35:19;;;;;;;11.13;3.80;;;12.60;83.00;;;;;;5024598;28;20033;-74
2023/03/23 04:37:45;;;;;;;7.20;2.33;;;12.50;83.20;;;;;;5026083;28;20034;-75
2023/03/23 04:40:14;;;;;;;11.05;3.13;;;12.50;83.30;;;;;;5021040;28;20378;-74
2023/03/23 04:42:46;;;;;;;10.88;2.90;;;12.50;83.20;;;;;;5023264;28;20091;-75
2023/03/23 04:45:21;;;;;;;10.40;2.90;;;12.40;83.80;;;;;;5009688;28;20033;-75
2023/03/23 04:47:53;;;;;;;9.52;3.30;;;12.40;84.20;;;;;;5022097;28;20878;-75
2023/03/23 04:50:23;;;;;;;14.50;3.40;;;12.40;84.50;;;;;;5020251;28;20021;-75
2023/03/23 04:52:51;;;;;;;11.82;3.20;;;12.30;84.70;;;;;;5015249;28;20087;-75
2023/03/23 04:55:17;;;;;;;10.00;3.13;;;12.30;85.10;;;;;;5026068;28;20033;-75
2023/03/23 04:57:44;;;;;;;15.90;3.35;;;12.10;85.50;;;;;;5026754;28;20056;-75
2023/03/23 05:00:14;;;;;;;15.60;3.28;;;12.20;86.00;;;;;;5024797;28;20407;-73
2023/03/23 05:02:40;;;;;;;12.05;3.47;;;12.10;86.40;;;;;;5021901;28;20045;-74
2023/03/23 05:05:07;;;;;;;11.30;3.28;;;12.10;87.00;;;;;;5032689;28;20095;-75
2023/03/23 05:07:33;;;;;;;12.23;3.15;;;12.00;87.30;;;;;;5024663;28;20041;-74
2023/03/23 05:09:59;;;;;;;14.85;3.97;;;11.90;87.60;;;;;;5018774;28;20603;-74
2023/03/23 05:12:24;;;;;;;11.02;3.13;;;11.90;87.80;;;;;;5019389;28;20052;-76
2023/03/23 05:14:50;;;;;;;13.73;3.75;;;11.90;88.10;;;;;;5037113;28;20690;-74
2023/03/23 05:17:16;;;;;;;17.15;4.10;;;11.80;88.40;;;;;;5017789;28;20025;-74
2023/03/23 05:19:48;;;;;;;10.50;4.03;;;11.70;89.30;;;;;;5022314;28;20025;-74
2023/03/23 05:22:14;;;;;;;15.40;3.90;;;11.60;89.50;;;;;;5021534;28;20596;-74
2023/03/23 05:24:40;;;;;;;14.10;4.75;;;11.60;89.80;;;;;;5020216;28;20512;-74
2023/03/23 05:27:07;;;;;;;14.18;3.70;;;11.60;89.80;;;;;;5019961;28;20128;-74
2023/03/23 05:29:35;;;;;;;11.23;3.58;;;11.60;89.70;;;;;;5026016;28;20088;-74
2023/03/23 05:32:03;;;;;;;8.35;2.47;;;11.40;89.70;;;;;;5022420;28;20087;-73
2023/03/23 05:34:32;;;;;;;8.30;2.60;;;11.10;89.30;;;;;;5021546;28;20021;-74
2023/03/23 05:36:58;;;;;;;9.05;2.53;;;11.10;89.20;;;;;;5016027;28;20037;-74
2023/03/23 05:39:26;;;;;;;6.00;2.17;;;11.00;89.10;;;;;;5012152;28;20033;-74
2023/03/23 05:41:52;;;;;;;8.75;2.70;;;11.00;89.10;;;;;;5011273;28;20033;-74
2023/03/23 05:44:18;;;;;;;8.50;2.22;;;10.80;89.10;;;;;;5011134;28;20103;-75
2023/03/23 05:46:44;;;;;;;7.20;2.38;;;10.80;89.10;;;;;;5012879;28;20171;-75
2023/03/23 05:49:10;;;;;;;7.70;2.65;;;10.70;89.00;;;;;;5009949;28;20038;-74
2023/03/23 05:51:36;;;;;;;7.75;2.55;;;10.80;89.10;;;;;;5029835;28;20567;-74
2023/03/23 05:54:03;;;;;;;7.72;2.40;;;10.70;88.90;;;;;;5012343;28;20108;-74
2023/03/23 05:56:30;;;;;;;9.45;2.80;;;10.60;89.00;;;;;;5026673;28;20049;-74
2023/03/23 05:58:56;;;;;;;12.02;2.47;;;10.60;89.20;;;;;;5022720;28;20620;-74
2023/03/23 06:01:22;;;;;;;9.93;2.75;;;10.60;89.30;;;;;;5023705;28;20033;-74
2023/03/23 06:03:51;;;;;;;10.30;2.90;;;10.50;89.50;;;;;;5003479;28;20113;-74
2023/03/23 06:06:17;;;;;;;9.75;2.60;;;10.60;89.60;;;;;;5015463;28;20044;-74
2023/03/23 06:08:44;;;;;;;14.02;2.78;;;10.60;89.50;;;;;;5013323;28;20034;-74
2023/03/23 06:11:10;;;;;;;8.93;2.70;;;10.60;89.50;;;;;;5012997;28;20132;-74
2023/03/23 06:13:36;;;;;;;8.32;2.50;;;10.60;89.50;;;;;;5014463;28;20461;-74
2023/03/23 06:16:03;;;;;;;8.02;2.17;;;10.60;89.60;;;;;;5008748;28;20026;-74
2023/03/23 06:18:33;;;;;;;8.25;2.25;;;10.60;89.60;;;;;;5010296;28;20026;-74
2023/03/23 06:21:00;;;;;;;9.05;2.72;;;10.60;89.70;;;;;;5023142;28;20037;-74
2023/03/23 06:23:26;;;;;;;7.88;2.47;;;10.60;89.60;;;;;;5017841;28;20020;-74
2023/03/23 06:25:59;;;;;;;8.57;2.63;;;10.60;89.60;;;;;;5020945;28;20037;-74
2023/03/23 06:28:25;;;;;;;9.93;2.40;;;10.50;89.60;;;;;;5018879;28;20029;-74
2023/03/23 06:30:51;;;;;;;8.32;3.42;;;10.60;89.70;;;;;;5015533;28;20097;-74
2023/03/23 06:33:17;;;;;;;7.65;2.42;;;10.60;89.50;;;;;;5013430;28;20034;-74
2023/03/23 06:35:43;;;;;;;8.45;2.28;;;10.60;89.30;;;;;;5022063;28;20060;-74
2023/03/23 06:38:09;;;;;;;10.30;2.65;;;10.60;89.10;;;;;;5019585;28;20025;-73
2023/03/23 06:40:38;;;;;;;11.05;2.67;;;10.60;89.10;;;;;;5031241;28;20037;-73
2023/03/23 06:43:04;;;;;;;8.35;2.13;;;10.60;89.10;;;;;;5016027;28;20057;-74
2023/03/23 06:45:31;;;;;;;7.85;2.78;;;10.60;89.20;;;;;;5023337;28;20091;-74
2023/03/23 06:47:56;;;;;;;10.15;2.47;;;10.60;89.20;;;;;;5022934;28;20049;-74
2023/03/23 06:50:22;;;;;;;10.70;2.72;;;10.60;89.00;;;;;;5025382;28;20402;-73
2023/03/23 06:52:50;;;;;;;10.48;3.50;;;10.70;89.00;;;;;;5024733;28;20176;-74
2023/03/23 06:55:16;;;;;;;11.82;3.22;;;10.70;89.00;;;;;;5017550;28;20481;-75
2023/03/23 06:57:43;;;;;;;9.93;3.08;;;10.80;89.00;;;;;;5021364;28;20029;-73
2023/03/23 07:00:13;;;;;;;10.13;3.30;;;10.80;88.90;;;;;;5023512;28;20350;-74
2023/03/23 07:02:44;;;;;;;11.10;3.15;;;10.80;88.90;;;;;;5023218;28;20186;-73
2023/03/23 07:05:10;;;;;;;11.23;2.80;;;10.80;88.70;;;;;;5026893;28;20021;-74
2023/03/23 07:07:40;;;;;;;7.07;2.72;;;10.80;88.70;;;;;;5022260;28;20033;-74
2023/03/23 07:10:08;;;;;;;8.75;2.80;;;10.80;88.90;;;;;;5023387;28;20044;-74
2023/03/23 07:12:35;;;;;;;13.90;3.08;;;10.80;88.90;;;;;;5024475;28;20781;-74
2023/03/23 07:15:02;;;;;;;10.43;2.42;;;10.80;88.80;;;;;;5024962;28;20037;-74
2023/03/23 07:17:28;;;;;;;7.97;2.90;;;10.80;88.90;;;;;;5020856;28;20034;-73
2023/03/23 07:19:54;;;;;;;8.82;3.17;;;10.80;88.80;;;;;;5025205;28;20024;-73
2023/03/23 07:22:20;;;;;;;8.25;3.20;;;10.80;88.80;;;;;;5027266;28;20685;-73
2023/03/23 07:24:46;;;;;;;8.02;2.30;;;10.80;88.80;;;;;;5023341;28;20064;-73
2023/03/23 07:27:11;;;;;;;7.90;2.42;;;10.90;88.60;;;;;;5022060;28;20119;-74
2023/03/23 07:29:38;;;;;;;8.80;3.10;;;10.90;88.50;;;;;;5019566;28;20013;-73
2023/03/23 07:32:04;;;;;;;8.30;2.33;;;10.90;88.50;;;;;;5020693;28;20050;-73
2023/03/23 07:34:31;;;;;;;9.27;2.67;;;10.90;88.50;;;;;;5023631;28;20108;-74
2023/03/23 07:36:57;;;;;;;11.77;2.42;;;11.00;88.50;;;;;;5020479;28;20610;-73
2023/03/23 07:39:24;;;;;;;10.35;2.38;;;11.10;88.30;;;;;;5022644;28;20033;-74
2023/03/23 07:41:50;;;;;;;6.65;2.15;;;11.20;88.00;;;;;;5023382;28;20119;-74
2023/03/23 07:44:16;;;;;;;8.98;2.65;;;11.30;87.70;;;;;;5018280;28;20079;-73
2023/03/23 07:46:42;;;;;;;6.38;2.45;;;11.30;87.40;;;;;;5021382;28;20142;-74
2023/03/23 07:49:08;;;;;;;8.70;2.30;;;11.40;87.20;;;;;;5021769;28;20496;-73
2023/03/23 07:51:34;;;;;;;7.95;2.38;;;11.50;87.10;;;;;;5023162;28;20052;-73
2023/03/23 07:54:02;;;;;;;5.78;2.28;;;11.50;86.80;;;;;;5019535;28;20394;-73
2023/03/23 07:56:28;;;;;;;6.32;2.10;;;11.60;86.50;;;;;;5022468;28;20034;-73
2023/03/23 07:58:54;;;;;;;7.53;1.92;;;11.70;86.60;;;;;;5022449;28;20397;-73
2023/03/23 08:01:21;;;;;;;10.27;2.75;;;11.80;86.60;;;;;;5009925;28;20465;-73
2023/03/23 08:03:46;;;;;;;8.18;2.42;;;11.90;86.20;;;;;;5028474;28;20024;-71
2023/03/23 08:06:12;;;;;;;8.05;2.70;;;11.90;86.00;;;;;;5022729;28;20034;-72
2023/03/23 08:08:40;;;;;;;8.77;3.03;;;11.90;85.90;;;;;;5023895;28;20017;-72
2023/03/23 08:11:06;;;;;;;10.93;3.10;;;12.10;85.90;;;;;;5024855;28;21967;-72
2023/03/23 08:13:33;;;;;;;9.77;3.20;;;12.10;85.70;;;;;;5023880;28;20473;-72
2023/03/23 08:16:00;;;;;;;9.95;2.58;;;12.30;85.10;;;;;;5022291;28;20041;-71
2023/03/23 08:18:26;;;;;;;11.52;2.88;;;12.60;84.50;;;;;;5027735;28;20113;-71
2023/03/23 08:20:53;;;;;;;10.07;2.78;;;12.90;84.80;;;;;;5023525;28;20124;-72
2023/03/23 08:23:19;;;;;;;8.27;2.40;;;13.20;83.60;;;;;;5024360;28;20052;-71
2023/03/23 08:25:45;;;;;;;9.32;2.83;;;13.30;82.70;;;;;;5020205;28;20052;-72
2023/03/23 08:28:13;;;;;;;8.35;2.75;;;13.40;81.90;;;;;;5021381;28;20048;-72
2023/03/23 08:30:40;;;;;;;9.30;2.35;;;13.40;81.30;;;;;;5022636;28;20035;-71
2023/03/23 08:33:09;;;;;;;13.40;2.50;;;13.50;81.20;;;;;;5025351;28;20041;-72
2023/03/23 08:35:36;;;;;;;12.15;2.92;;;13.70;81.60;;;;;;5023257;28;20017;-72
2023/03/23 08:38:02;;;;;;;9.00;2.72;;;13.70;80.90;;;;;;5023200;28;20029;-72
2023/03/23 08:40:28;;;;;;;9.73;2.40;;;13.80;80.50;;;;;;5030524;28;20070;-71
2023/03/23 08:42:54;;;;;;;9.32;2.25;;;13.70;80.80;;;;;;5023791;28;20042;-71
2023/03/23 08:45:22;;;;;;;7.05;2.60;;;13.70;80.70;;;;;;5023916;28;20061;-72
2023/03/23 08:47:51;;;;;;;9.68;2.97;;;13.80;80.40;;;;;;5021970;28;20053;-73
2023/03/23 08:50:19;;;;;;;8.95;2.92;;;13.80;80.70;;;;;;5022896;28;20385;-71
2023/03/23 08:52:45;;;;;;;7.70;2.50;;;13.80;80.40;;;;;;5020738;28;20045;-72
2023/03/23 08:55:12;;;;;;;7.70;2.28;;;13.70;80.50;;;;;;5005639;28;20028;-72
2023/03/23 08:57:38;;;;;;;10.27;2.35;;;13.90;80.40;;;;;;5020242;28;20489;-71
2023/03/23 09:00:28;;;;;;;9.43;2.58;;;14.00;80.30;;;;;;5026175;28;20033;-73
2023/03/23 09:02:54;;;;;;;6.38;2.00;;;14.10;79.50;;;;;;5018724;28;20038;-72
2023/03/23 09:05:24;;;;;;;7.13;2.30;;;14.20;78.80;;;;;;5006324;28;20303;-75
2023/03/23 09:07:52;;;;;;;6.38;2.10;;;14.30;78.60;;;;;;5021088;28;20040;-73
2023/03/23 09:10:19;;;;;;;5.38;2.30;;;14.30;78.70;;;;;;5029447;28;20025;-75
2023/03/23 09:12:46;;;;;;;7.28;2.33;;;14.50;78.60;;;;;;5022001;28;20045;-73
2023/03/23 09:15:15;;;;;;;6.18;2.28;;;14.60;78.50;;;;;;5024021;28;20029;-74
2023/03/23 09:17:44;;;;;;;4.65;1.85;;;14.70;78.20;;;;;;5021371;28;20088;-74
2023/03/23 09:20:12;;;;;;;7.60;2.60;;;15.00;77.60;;;;;;5008674;28;20033;-76
2023/03/23 09:22:40;;;;;;;8.77;2.20;;;15.20;76.60;;;;;;5015341;28;20122;-73
2023/03/23 09:25:08;;;;;;;8.73;2.10;;;15.30;76.00;;;;;;5016214;28;20057;-74
2023/03/23 09:27:36;;;;;;;4.95;2.20;;;15.40;75.60;;;;;;5017658;28;20037;-72
2023/03/23 09:30:05;;;;;;;7.70;2.28;;;15.40;75.30;;;;;;5012404;28;20108;-72
2023/03/23 09:32:36;;;;;;;8.80;2.47;;;15.30;75.50;;;;;;5018823;28;20163;-73
2023/03/23 09:35:03;;;;;;;7.95;2.45;;;15.30;75.90;;;;;;5017367;28;20014;-73
2023/03/23 09:37:30;;;;;;;8.65;2.60;;;15.20;75.60;;;;;;5014839;28;20253;-73
2023/03/23 09:39:56;;;;;;;8.65;2.42;;;15.00;75.90;;;;;;5013638;28;20041;-72
2023/03/23 09:42:31;;;;;;;10.07;2.60;;;15.00;76.50;;;;;;5028711;28;20083;-73
2023/03/23 09:45:16;;;;;;;10.15;2.63;;;15.10;76.50;;;;;;5013080;28;20029;-73
2023/03/23 09:48:16;;;;;;;11.88;2.90;;;14.90;76.40;;;;;;5018842;28;20057;-73
2023/03/23 09:50:44;;;;;;;9.60;2.60;;;14.70;76.40;;;;;;5004120;28;20030;-73
2023/03/23 09:53:34;;;;;;;7.60;2.70;;;14.70;76.60;;;;;;5018741;28;20106;-73
2023/03/23 09:56:02;;;;;;;9.70;2.97;;;14.90;76.60;;;;;;5022780;28;20286;-75
2023/03/23 09:58:36;;;;;;;11.55;3.88;;;15.00;76.60;;;;;;5023434;28;20014;-75
2023/03/23 10:01:12;;;;;;;9.80;2.92;;;15.10;76.00;;;;;;5023302;28;20087;-74
2023/03/23 10:03:44;;;;;;;10.30;2.70;;;15.10;75.60;;;;;;5019558;28;20096;-74
2023/03/23 10:06:15;;;;;;;11.25;3.20;;;15.10;74.50;;;;;;5020757;28;20046;-74
2023/03/23 10:08:49;;;;;;;10.32;3.30;;;15.10;75.20;;;;;;5027264;28;20029;-75
2023/03/23 10:11:30;;;;;;;11.32;3.25;;;15.00;75.10;;;;;;5024732;28;20087;-75
2023/03/23 10:14:37;;;;;;;13.18;3.10;;;15.10;75.70;;;;;;5031735;28;20026;-74
2023/03/23 10:17:24;;;;;;;11.30;3.83;;;15.10;75.50;;;;;;4941662;28;20042;-74
2023/03/23 10:19:57;;;;;;;11.93;3.90;;;15.10;75.10;;;;;;5024818;28;20038;-73
2023/03/23 10:23:09;;;;;;;11.93;3.72;;;15.10;74.30;;;;;;5022796;28;20038;-74
2023/03/23 10:25:38;;;;;;;8.82;2.67;;;15.00;75.00;;;;;;4990806;28;20045;-74
2023/03/23 10:28:18;;;;;;;12.98;3.63;;;14.80;75.40;;;;;;5022621;28;20033;-73
2023/03/23 10:30:52;;;;;;;11.02;3.55;;;14.80;76.80;;;;;;5004573;28;20511;-74
2023/03/23 10:33:42;;;;;;;9.50;3.37;;;14.60;77.30;;;;;;5027021;28;20060;-74
2023/03/23 10:36:39;;;;;;;10.40;3.45;;;14.40;79.10;;;;;;5025389;28;20040;-73
2023/03/23 10:39:17;;;;;;;9.38;3.42;;;14.40;80.80;;;;;;5011746;28;20516;-74
2023/03/23 10:41:42;;;;;;;13.10;3.85;;;14.70;81.10;;;;;;5016396;28;20072;-74
2023/03/23 10:44:22;;;;;;;12.43;4.28;;;15.10;80.00;;;;;;5038823;28;20302;-74
2023/03/23 10:46:54;;;;;;;12.65;3.45;;;15.50;78.40;;;;;;5024153;28;20123;-73
2023/03/23 10:49:42;;;;;;;12.77;3.85;;;15.40;75.10;;;;;;5028282;28;20470;-74
2023/03/23 10:52:14;;;;;;;17.05;3.53;;;15.30;74.90;;;;;;5025878;28;20045;-74
2023/03/23 10:54:50;;;;;;;12.15;3.47;;;15.40;75.80;;;;;;5026948;28;20059;-74
2023/03/23 10:57:29;;;;;;;12.43;3.05;;;15.60;73.20;;;;;;5020304;28;20034;-73
2023/03/23 11:00:15;;;;;;;12.02;3.38;;;15.70;72.60;;;;;;5022003;28;20029;-73
2023/03/23 11:02:45;;;;;;;13.10;3.28;;;15.80;71.90;;;;;;5025542;28;20524;-71
2023/03/23 11:05:23;;;;;;;13.98;3.63;;;15.70;71.90;;;;;;5027531;28;20334;-74
2023/03/23 11:07:55;;;;;;;11.45;3.33;;;16.10;71.00;;;;;;5017619;28;20120;-74
2023/03/23 11:10:23;;;;;;;10.25;3.00;;;16.00;71.10;;;;;;5024774;28;20056;-75
2023/03/23 11:12:49;;;;;;;10.90;3.28;;;15.80;70.90;;;;;;5023767;28;20511;-74
2023/03/23 11:15:32;;;;;;;14.18;3.47;;;15.60;70.40;;;;;;5006923;28;20029;-74
2023/03/23 11:18:01;;;;;;;13.35;3.70;;;15.40;72.40;;;;;;5023194;28;20041;-74
2023/03/23 11:20:29;;;;;;;13.10;3.38;;;15.40;74.90;;;;;;5023076;28;20491;-73
2023/03/23 11:22:56;;;;;;;14.70;3.55;;;15.10;75.20;;;;;;5016148;28;20041;-73
2023/03/23 11:25:22;;;;;;;14.65;3.30;;;15.00;75.30;;;;;;5023711;28;20027;-73
2023/03/23 11:27:49;;;;;;;12.75;3.80;;;14.80;76.40;;;;;;5022501;28;20230;-73
2023/03/23 11:30:21;;;;;;;11.43;3.20;;;15.10;77.50;;;;;;5020163;28;20029;-73
2023/03/23 11:32:47;;;;;;;12.73;3.85;;;15.30;76.40;;;;;;5013390;28;20034;-72
2023/03/23 11:35:26;;;;;;;12.75;3.92;;;15.50;75.80;;;;;;5012689;28;20017;-73
2023/03/23 11:37:57;;;;;;;13.15;3.95;;;15.60;75.60;;;;;;5012797;28;20038;-73
2023/03/23 11:40:31;;;;;;;18.27;4.30;;;15.70;74.70;;;;;;5014305;28;20018;-73
2023/03/23 11:43:10;;;;;;;21.02;3.80;;;15.70;75.10;;;;;;5015299;28;20044;-73
2023/03/23 11:46:01;;;;;;;14.18;3.80;;;16.00;74.60;;;;;;5015386;28;20559;-73
2023/03/23 11:48:38;;;;;;;12.95;3.88;;;16.00;72.80;;;;;;5016489;28;20140;-73
2023/03/23 11:51:20;;;;;;;13.80;3.42;;;16.00;72.40;;;;;;5013274;28;20045;-74
2023/03/23 11:54:04;;;;;;;13.98;3.92;;;16.10;71.90;;;;;;5010986;28;20018;-72
2023/03/23 11:56:36;;;;;;;10.45;3.40;;;16.10;70.10;;;;;;5012760;28;20061;-73
2023/03/23 11:59:04;;;;;;;14.93;3.28;;;16.10;70.10;;;;;;5014440;28;20515;-73
2023/03/23 12:01:48;;;;;;;12.10;3.70;;;16.10;68.90;;;;;;5017084;28;20096;-73
2023/03/23 12:04:35;;;;;;;15.55;3.30;;;15.70;68.40;;;;;;5013198;28;20556;-73
2023/03/23 12:07:13;;;;;;;12.27;3.50;;;15.70;69.70;;;;;;5012888;28;20044;-72
2023/03/23 12:10:00;;;;;;;11.70;3.80;;;15.60;70.40;;;;;;5017885;28;20025;-72
2023/03/23 12:12:51;;;;;;;19.23;3.85;;;15.60;71.20;;;;;;5017201;28;20049;-73
2023/03/23 12:15:52;;;;;;;15.27;3.83;;;15.50;70.30;;;;;;5012700;28;20438;-75
2023/03/23 12:18:45;;;;;;;12.65;3.38;;;15.40;71.10;;;;;;5024372;28;20030;-72
2023/03/23 12:21:23;;;;;;;12.80;3.10;;;15.30;71.70;;;;;;5029823;28;20523;-72
2023/03/23 12:23:54;;;;;;;12.82;3.45;;;15.20;70.90;;;;;;5025157;28;20029;-72
2023/03/23 12:26:29;;;;;;;10.85;2.85;;;15.10;74.30;;;;;;5022787;28;20038;-73
2023/03/23 12:29:30;;;;;;;12.88;3.53;;;15.40;74.80;;;;;;5024848;28;20028;-74
2023/03/23 12:32:18;;;;;;;12.70;3.28;;;15.60;73.80;;;;;;5021706;28;20048;-72
2023/03/23 12:34:52;;;;;;;17.30;4.70;;;15.40;73.00;;;;;;5018394;28;20033;-72
2023/03/23 12:37:37;;;;;;;15.23;3.60;;;15.30;73.50;;;;;;5024670;28;20124;-72
2023/03/23 12:40:22;;;;;;;16.52;4.10;;;15.20;73.60;;;;;;5026824;28;20132;-72
2023/03/23 12:42:55;;;;;;;11.98;3.60;;;15.30;74.10;;;;;;5020823;28;20053;-72
2023/03/23 12:45:59;;;;;;;18.10;4.93;;;15.60;74.30;;;;;;5023240;28;20026;-73
2023/03/23 12:48:33;;;;;;;17.65;4.63;;;15.60;72.50;;;;;;5017580;28;20052;-74
2023/03/23 12:51:16;;;;;;;16.40;4.50;;;15.70;71.90;;;;;;5020978;28;20228;-74
2023/03/23 12:54:09;;;;;;;12.93;4.25;;;15.80;72.40;;;;;;5023683;28;20032;-75
2023/03/23 12:56:48;;;;;;;14.90;3.88;;;16.10;71.60;;;;;;5023132;28;20053;-72
2023/03/23 12:59:48;;;;;;;14.55;3.78;;;16.30;70.90;;;;;;5020514;28;20083;-73
2023/03/23 13:02:49;;;;;;;15.80;3.95;;;16.30;69.20;;;;;;5024757;28;20627;-72
2023/03/23 13:05:24;;;;;;;14.75;3.78;;;16.20;69.30;;;;;;5016497;28;20034;-73